createdAt,value
2018-08-12T00:00:31.072Z,1015.10
2018-08-12T00:01:31.062Z,1015.11
2018-08-12T00:02:31.044Z,1015.09
2018-08-12T00:03:31.041Z,1015.10
2018-08-12T00:04:31.009Z,1015.06
2018-08-12T00:05:31.044Z,1015.10
2018-08-12T00:06:30.988Z,1015.06
2018-08-12T00:07:30.964Z,1015.06
2018-08-12T00:08:30.970Z,1015.05
2018-08-12T00:09:30.942Z,1015.04
2018-08-12T00:10:30.928Z,1015.02
2018-08-12T00:11:30.909Z,1015.02
2018-08-12T00:12:30.888Z,1015.00
2018-08-12T00:13:30.870Z,1015.02
2018-08-12T00:14:30.856Z,1015.00
2018-08-12T00:15:30.847Z,1014.99
2018-08-12T00:16:30.825Z,1015.00
2018-08-12T00:17:30.809Z,1014.95
2018-08-12T00:18:30.849Z,1014.96
2018-08-12T00:19:30.779Z,1014.96
2018-08-12T00:20:30.764Z,1014.92
2018-08-12T00:21:30.816Z,1014.92
2018-08-12T00:22:30.740Z,1014.92
2018-08-12T00:23:30.720Z,1014.94
2018-08-12T00:24:30.704Z,1014.95
2018-08-12T00:25:30.685Z,1014.93
2018-08-12T00:26:30.674Z,1014.90
2018-08-12T00:27:30.657Z,1014.84
2018-08-12T00:28:30.646Z,1014.86
2018-08-12T00:29:30.628Z,1014.87
2018-08-12T00:30:30.608Z,1014.85
2018-08-12T00:31:30.606Z,1014.86
2018-08-12T00:32:30.583Z,1014.85
2018-08-12T00:33:30.562Z,1014.80
2018-08-12T00:34:30.549Z,1014.79
2018-08-12T00:35:30.532Z,1014.79
2018-08-12T00:36:30.517Z,1014.76
2018-08-12T00:37:30.509Z,1014.76
2018-08-12T00:38:30.488Z,1014.74
2018-08-12T00:39:30.473Z,1014.81
2018-08-12T00:40:30.454Z,1014.82
2018-08-12T00:41:30.440Z,1014.85
2018-08-12T00:42:30.425Z,1014.82
2018-08-12T00:43:30.420Z,1014.81
2018-08-12T00:44:30.394Z,1014.79
2018-08-12T00:45:30.389Z,1014.77
2018-08-12T00:46:30.364Z,1014.79
2018-08-12T00:47:30.347Z,1014.81
2018-08-12T00:48:30.411Z,1014.82
2018-08-12T00:49:30.317Z,1014.81
2018-08-12T00:50:30.309Z,1014.80
2018-08-12T00:51:30.286Z,1014.78
2018-08-12T00:52:30.271Z,1014.77
2018-08-12T00:53:30.253Z,1014.83
2018-08-12T00:54:30.243Z,1014.81
2018-08-12T00:55:30.226Z,1014.79
2018-08-12T00:56:30.210Z,1014.75
2018-08-12T00:57:30.193Z,1014.76
2018-08-12T00:58:30.185Z,1014.75
2018-08-12T00:59:30.167Z,1014.78
2018-08-12T01:00:30.151Z,1014.78
2018-08-12T01:01:30.130Z,1014.78
2018-08-12T01:02:30.121Z,1014.78
2018-08-12T01:03:30.101Z,1014.79
2018-08-12T01:04:30.146Z,1014.75
2018-08-12T01:05:30.067Z,1014.73
2018-08-12T01:06:30.063Z,1014.69
2018-08-12T01:07:30.195Z,1014.70
2018-08-12T01:08:30.026Z,1014.69
2018-08-12T01:09:30.009Z,1014.68
2018-08-12T01:10:29.993Z,1014.67
2018-08-12T01:11:29.979Z,1014.68
2018-08-12T01:12:29.959Z,1014.65
2018-08-12T01:13:29.951Z,1014.63
2018-08-12T01:14:29.928Z,1014.66
2018-08-12T01:15:29.914Z,1014.66
2018-08-12T01:16:29.899Z,1014.66
2018-08-12T01:17:29.881Z,1014.65
2018-08-12T01:18:29.869Z,1014.66
2018-08-12T01:19:29.850Z,1014.64
2018-08-12T01:20:29.850Z,1014.64
2018-08-12T01:21:29.816Z,1014.60
2018-08-12T01:22:29.811Z,1014.63
2018-08-12T01:23:29.790Z,1014.60
2018-08-12T01:24:29.776Z,1014.64
2018-08-12T01:25:29.758Z,1014.62
2018-08-12T01:26:29.748Z,1014.65
2018-08-12T01:27:29.739Z,1014.65
2018-08-12T01:28:29.708Z,1014.65
2018-08-12T01:29:29.697Z,1014.68
2018-08-12T01:30:29.686Z,1014.70
2018-08-12T01:31:29.681Z,1014.66
2018-08-12T01:32:29.647Z,1014.66
2018-08-12T01:33:29.631Z,1014.62
2018-08-12T01:34:29.630Z,1014.61
2018-08-12T01:35:29.605Z,1014.58
2018-08-12T01:36:29.593Z,1014.59
2018-08-12T01:37:29.576Z,1014.57
2018-08-12T01:38:29.559Z,1014.56
2018-08-12T01:39:29.535Z,1014.57
2018-08-12T01:40:29.521Z,1014.55
2018-08-12T01:41:29.511Z,1014.57
2018-08-12T01:42:29.489Z,1014.56
2018-08-12T01:43:29.474Z,1014.54
2018-08-12T01:44:29.458Z,1014.55
2018-08-12T01:45:29.440Z,1014.53
2018-08-12T01:46:29.426Z,1014.52
2018-08-12T01:47:29.411Z,1014.48
2018-08-12T01:48:29.398Z,1014.47
2018-08-12T01:49:29.378Z,1014.41
2018-08-12T01:50:29.434Z,1014.43
2018-08-12T01:51:29.349Z,1014.41
2018-08-12T01:52:29.334Z,1014.42
2018-08-12T01:53:29.424Z,1014.36
2018-08-12T01:54:29.299Z,1014.38
2018-08-12T01:55:29.283Z,1014.34
2018-08-12T01:56:29.319Z,1014.36
2018-08-12T01:57:29.254Z,1014.34
2018-08-12T01:58:29.235Z,1014.34
2018-08-12T01:59:29.232Z,1014.33
2018-08-12T02:00:29.206Z,1014.38
2018-08-12T02:01:29.189Z,1014.37
2018-08-12T02:02:29.174Z,1014.35
2018-08-12T02:03:29.165Z,1014.33
2018-08-12T02:04:29.150Z,1014.26
2018-08-12T02:05:29.123Z,1014.26
2018-08-12T02:06:29.117Z,1014.21
2018-08-12T02:07:29.093Z,1014.18
2018-08-12T02:08:29.077Z,1014.17
2018-08-12T02:09:29.197Z,1014.13
2018-08-12T02:10:29.047Z,1014.09
2018-08-12T02:11:29.031Z,1014.07
2018-08-12T02:12:29.025Z,1014.09
2018-08-12T02:13:29.315Z,1014.08
2018-08-12T02:14:28.981Z,1014.06
2018-08-12T02:15:28.964Z,1014.07
2018-08-12T02:16:28.949Z,1014.08
2018-08-12T02:17:29.060Z,1014.01
2018-08-12T02:18:28.925Z,1013.98
2018-08-12T02:19:28.902Z,1013.98
2018-08-12T02:20:28.986Z,1014.00
2018-08-12T02:21:28.868Z,1014.00
2018-08-12T02:22:28.864Z,1013.96
2018-08-12T02:23:28.843Z,1013.96
2018-08-12T02:24:28.820Z,1013.93
2018-08-12T02:25:28.808Z,1013.89
2018-08-12T02:26:28.791Z,1013.92
2018-08-12T02:27:28.801Z,1013.88
2018-08-12T02:28:28.772Z,1013.88
2018-08-12T02:29:28.750Z,1013.83
2018-08-12T02:30:28.728Z,1013.84
2018-08-12T02:31:28.710Z,1013.79
2018-08-12T02:32:28.693Z,1013.80
2018-08-12T02:33:28.683Z,1013.79
2018-08-12T02:34:28.661Z,1013.79
2018-08-12T02:35:28.643Z,1013.76
2018-08-12T02:36:28.717Z,1013.78
2018-08-12T02:37:28.613Z,1013.79
2018-08-12T02:38:28.595Z,1013.80
2018-08-12T02:39:28.579Z,1013.77
2018-08-12T02:40:28.561Z,1013.76
2018-08-12T02:41:28.550Z,1013.74
2018-08-12T02:42:28.534Z,1013.73
2018-08-12T02:43:28.517Z,1013.68
2018-08-12T02:44:28.501Z,1013.69
2018-08-12T02:45:28.483Z,1013.71
2018-08-12T02:46:28.469Z,1013.68
2018-08-12T02:47:28.452Z,1013.71
2018-08-12T02:48:28.440Z,1013.72
2018-08-12T02:49:28.419Z,1013.68
2018-08-12T02:50:28.403Z,1013.70
2018-08-12T02:51:28.387Z,1013.70
2018-08-12T02:52:28.370Z,1013.71
2018-08-12T02:53:28.372Z,1013.68
2018-08-12T02:54:28.342Z,1013.67
2018-08-12T02:55:28.485Z,1013.67
2018-08-12T02:56:28.308Z,1013.65
2018-08-12T02:57:28.293Z,1013.67
2018-08-12T02:58:28.277Z,1013.65
2018-08-12T02:59:28.257Z,1013.64
2018-08-12T03:00:28.245Z,1013.61
2018-08-12T03:01:28.277Z,1013.62
2018-08-12T03:02:28.210Z,1013.59
2018-08-12T03:03:28.194Z,1013.57
2018-08-12T03:04:28.180Z,1013.58
2018-08-12T03:05:28.160Z,1013.57
2018-08-12T03:06:28.245Z,1013.55
2018-08-12T03:07:28.129Z,1013.54
2018-08-12T03:08:28.111Z,1013.51
2018-08-12T03:09:28.096Z,1013.48
2018-08-12T03:10:28.081Z,1013.51
2018-08-12T03:11:28.067Z,1013.49
2018-08-12T03:12:28.047Z,1013.51
2018-08-12T03:13:28.034Z,1013.46
2018-08-12T03:14:28.015Z,1013.45
2018-08-12T03:15:28.001Z,1013.46
2018-08-12T03:16:27.985Z,1013.41
2018-08-12T03:17:27.964Z,1013.43
2018-08-12T03:18:27.950Z,1013.38
2018-08-12T03:19:27.941Z,1013.36
2018-08-12T03:20:27.918Z,1013.40
2018-08-12T03:21:27.901Z,1013.40
2018-08-12T03:22:28.044Z,1013.40
2018-08-12T03:23:27.871Z,1013.34
2018-08-12T03:24:27.854Z,1013.41
2018-08-12T03:25:27.905Z,1013.38
2018-08-12T03:26:27.836Z,1013.35
2018-08-12T03:27:27.811Z,1013.39
2018-08-12T03:28:27.787Z,1013.33
2018-08-12T03:29:27.769Z,1013.34
2018-08-12T03:30:27.753Z,1013.30
2018-08-12T03:31:27.739Z,1013.31
2018-08-12T03:32:27.723Z,1013.26
2018-08-12T03:33:27.704Z,1013.26
2018-08-12T03:34:27.689Z,1013.23
2018-08-12T03:35:27.725Z,1013.25
2018-08-12T03:36:27.657Z,1013.21
2018-08-12T03:37:27.648Z,1013.20
2018-08-12T03:38:27.627Z,1013.20
2018-08-12T03:39:27.606Z,1013.22
2018-08-12T03:40:27.593Z,1013.19
2018-08-12T03:41:27.584Z,1013.16
2018-08-12T03:42:27.555Z,1013.15
2018-08-12T03:43:27.544Z,1013.16
2018-08-12T03:44:27.616Z,1013.13
2018-08-12T03:45:27.505Z,1013.10
2018-08-12T03:46:27.488Z,1013.12
2018-08-12T03:47:27.472Z,1013.14
2018-08-12T03:48:27.458Z,1013.08
2018-08-12T03:49:27.450Z,1013.13
2018-08-12T03:50:27.424Z,1013.09
2018-08-12T03:51:27.405Z,1013.06
2018-08-12T03:52:27.390Z,1013.08
2018-08-12T03:53:27.372Z,1013.09
2018-08-12T03:54:27.357Z,1013.07
2018-08-12T03:55:27.342Z,1013.08
2018-08-12T03:56:27.325Z,1013.10
2018-08-12T03:57:27.305Z,1013.07
2018-08-12T03:58:27.292Z,1013.03
2018-08-12T03:59:27.274Z,1013.04
2018-08-12T04:00:27.255Z,1013.00
2018-08-12T04:01:27.240Z,1012.96
2018-08-12T04:02:27.308Z,1013.00
2018-08-12T04:03:27.211Z,1012.99
2018-08-12T04:04:27.200Z,1013.02
2018-08-12T04:05:27.179Z,1012.98
2018-08-12T04:06:27.159Z,1012.96
2018-08-12T04:07:27.140Z,1012.97
2018-08-12T04:08:27.274Z,1012.99
2018-08-12T04:09:27.103Z,1012.99
2018-08-12T04:10:27.088Z,1012.96
2018-08-12T04:11:27.097Z,1012.95
2018-08-12T04:12:27.060Z,1012.98
2018-08-12T04:13:27.037Z,1012.96
2018-08-12T04:14:27.019Z,1012.88
2018-08-12T04:15:27.009Z,1012.91
2018-08-12T04:16:26.989Z,1012.90
2018-08-12T04:17:26.968Z,1012.88
2018-08-12T04:18:26.954Z,1012.89
2018-08-12T04:19:26.939Z,1012.89
2018-08-12T04:20:26.928Z,1012.88
2018-08-12T04:21:26.902Z,1012.90
2018-08-12T04:22:26.884Z,1012.89
2018-08-12T04:23:26.870Z,1012.89
2018-08-12T04:24:26.856Z,1012.89
2018-08-12T04:25:26.838Z,1012.91
2018-08-12T04:26:26.820Z,1012.88
2018-08-12T04:27:26.930Z,1012.88
2018-08-12T04:28:26.788Z,1012.93
2018-08-12T04:29:26.770Z,1012.92
2018-08-12T04:30:26.800Z,1012.90
2018-08-12T04:31:26.738Z,1012.90
2018-08-12T04:32:26.718Z,1012.90
2018-08-12T04:33:26.700Z,1012.88
2018-08-12T04:34:26.691Z,1012.85
2018-08-12T04:35:26.668Z,1012.87
2018-08-12T04:36:26.653Z,1012.87
2018-08-12T04:37:26.638Z,1012.88
2018-08-12T04:38:26.619Z,1012.86
2018-08-12T04:39:26.602Z,1012.83
2018-08-12T04:40:26.717Z,1012.82
2018-08-12T04:41:26.568Z,1012.80
2018-08-12T04:42:26.552Z,1012.81
2018-08-12T04:43:26.537Z,1012.79
2018-08-12T04:44:26.520Z,1012.79
2018-08-12T04:45:26.500Z,1012.79
2018-08-12T04:46:26.486Z,1012.77
2018-08-12T04:47:26.469Z,1012.75
2018-08-12T04:48:26.451Z,1012.76
2018-08-12T04:49:26.435Z,1012.74
2018-08-12T04:50:26.416Z,1012.76
2018-08-12T04:51:26.399Z,1012.71
2018-08-12T04:52:26.390Z,1012.72
2018-08-12T04:53:26.363Z,1012.73
2018-08-12T04:54:26.356Z,1012.71
2018-08-12T04:55:26.335Z,1012.73
2018-08-12T04:56:26.315Z,1012.73
2018-08-12T04:57:26.296Z,1012.69
2018-08-12T04:58:26.295Z,1012.70
2018-08-12T04:59:26.262Z,1012.70
2018-08-12T05:00:26.255Z,1012.74
2018-08-12T05:01:26.228Z,1012.75
2018-08-12T05:02:26.214Z,1012.76
2018-08-12T05:03:26.197Z,1012.73
2018-08-12T05:04:26.182Z,1012.77
2018-08-12T05:05:26.159Z,1012.77
2018-08-12T05:06:26.145Z,1012.72
2018-08-12T05:07:26.125Z,1012.71
2018-08-12T05:08:26.121Z,1012.69
2018-08-12T05:09:26.096Z,1012.73
2018-08-12T05:10:26.227Z,1012.74
2018-08-12T05:11:26.076Z,1012.71
2018-08-12T05:12:26.043Z,1012.69
2018-08-12T05:13:26.025Z,1012.71
2018-08-12T05:14:26.017Z,1012.69
2018-08-12T05:15:25.993Z,1012.68
2018-08-12T05:16:25.981Z,1012.70
2018-08-12T05:17:25.956Z,1012.70
2018-08-12T05:18:25.939Z,1012.70
2018-08-12T05:19:25.930Z,1012.69
2018-08-12T05:20:25.920Z,1012.73
2018-08-12T05:21:25.888Z,1012.68
2018-08-12T05:22:25.874Z,1012.70
2018-08-12T05:23:25.861Z,1012.72
2018-08-12T05:24:25.849Z,1012.72
2018-08-12T05:25:25.824Z,1012.71
2018-08-12T05:26:25.806Z,1012.69
2018-08-12T05:27:25.790Z,1012.67
2018-08-12T05:28:25.774Z,1012.69
2018-08-12T05:29:25.883Z,1012.69
2018-08-12T05:30:25.740Z,1012.65
2018-08-12T05:31:25.726Z,1012.67
2018-08-12T05:32:25.816Z,1012.64
2018-08-12T05:33:25.691Z,1012.61
2018-08-12T05:34:25.675Z,1012.81
2018-08-12T05:35:25.664Z,1013.11
2018-08-12T05:36:25.643Z,1013.10
2018-08-12T05:37:25.627Z,1013.22
2018-08-12T05:38:25.609Z,1013.14
2018-08-12T05:39:25.596Z,1012.98
2018-08-12T05:40:25.587Z,1012.83
2018-08-12T05:41:25.564Z,1012.95
2018-08-12T05:42:25.547Z,1012.98
2018-08-12T05:43:25.534Z,1012.85
2018-08-12T05:44:25.520Z,1012.76
2018-08-12T05:45:25.503Z,1012.72
2018-08-12T05:46:25.488Z,1012.72
2018-08-12T05:47:25.474Z,1012.73
2018-08-12T05:48:25.456Z,1012.85
2018-08-12T05:49:25.442Z,1013.04
2018-08-12T05:50:25.427Z,1013.06
2018-08-12T05:51:25.509Z,1012.88
2018-08-12T05:52:25.401Z,1012.91
2018-08-12T05:53:25.382Z,1012.98
2018-08-12T05:54:25.376Z,1012.83
2018-08-12T05:55:25.360Z,1012.80
2018-08-12T05:56:25.343Z,1012.83
2018-08-12T05:57:25.328Z,1012.85
2018-08-12T05:58:25.318Z,1012.94
2018-08-12T05:59:25.366Z,1012.81
2018-08-12T06:00:25.291Z,1013.01
2018-08-12T06:01:25.271Z,1012.85
2018-08-12T06:02:25.258Z,1012.79
2018-08-12T06:03:25.251Z,1012.94
2018-08-12T06:04:25.231Z,1012.73
2018-08-12T06:05:25.220Z,1012.64
2018-08-12T06:06:25.210Z,1012.86
2018-08-12T06:07:25.190Z,1012.85
2018-08-12T06:08:25.175Z,1012.99
2018-08-12T06:09:25.165Z,1013.01
2018-08-12T06:10:25.149Z,1013.01
2018-08-12T06:11:25.139Z,1013.04
2018-08-12T06:12:25.125Z,1012.95
2018-08-12T06:13:25.111Z,1012.91
2018-08-12T06:14:25.098Z,1012.95
2018-08-12T06:15:25.088Z,1012.95
2018-08-12T06:16:25.074Z,1012.88
2018-08-12T06:17:25.127Z,1012.89
2018-08-12T06:18:25.048Z,1012.87
2018-08-12T06:19:25.039Z,1012.84
2018-08-12T06:20:25.025Z,1012.84
2018-08-12T06:21:25.012Z,1012.81
2018-08-12T06:22:25.016Z,1012.81
2018-08-12T06:23:25.001Z,1012.54
2018-08-12T06:24:24.985Z,1012.51
2018-08-12T06:25:24.966Z,1012.58
2018-08-12T06:26:24.962Z,1012.50
2018-08-12T06:27:24.946Z,1012.49
2018-08-12T06:28:24.931Z,1012.53
2018-08-12T06:29:24.927Z,1012.47
2018-08-12T06:30:24.908Z,1012.42
2018-08-12T06:31:24.900Z,1012.38
2018-08-12T06:32:24.922Z,1012.39
2018-08-12T06:33:24.874Z,1012.69
2018-08-12T06:34:24.896Z,1012.55
2018-08-12T06:35:24.851Z,1012.68
2018-08-12T06:36:24.840Z,1012.79
2018-08-12T06:37:24.825Z,1012.73
2018-08-12T06:38:24.814Z,1012.77
2018-08-12T06:39:24.805Z,1012.64
2018-08-12T06:40:24.791Z,1012.65
2018-08-12T06:41:24.781Z,1012.65
2018-08-12T06:42:24.768Z,1012.59
2018-08-12T06:43:24.756Z,1012.52
2018-08-12T06:44:24.756Z,1012.51
2018-08-12T06:45:24.732Z,1012.50
2018-08-12T06:46:24.757Z,1012.62
2018-08-12T06:47:24.710Z,1012.39
2018-08-12T06:48:24.702Z,1012.32
2018-08-12T06:49:24.694Z,1012.36
2018-08-12T06:50:24.683Z,1012.37
2018-08-12T06:51:24.666Z,1012.41
2018-08-12T06:52:24.657Z,1012.46
2018-08-12T06:53:24.645Z,1012.43
2018-08-12T06:54:24.636Z,1012.35
2018-08-12T06:55:24.626Z,1012.35
2018-08-12T06:56:24.616Z,1012.30
2018-08-12T06:57:24.604Z,1012.28
2018-08-12T06:58:24.596Z,1012.30
2018-08-12T06:59:24.583Z,1012.42
2018-08-12T07:00:24.584Z,1012.62
2018-08-12T07:01:24.559Z,1012.39
2018-08-12T07:02:24.560Z,1012.49
2018-08-12T07:03:24.539Z,1012.38
2018-08-12T07:04:24.534Z,1012.31
2018-08-12T07:05:24.532Z,1012.34
2018-08-12T07:06:24.505Z,1012.31
2018-08-12T07:07:24.496Z,1012.32
2018-08-12T07:08:24.482Z,1012.32
2018-08-12T07:09:24.472Z,1012.30
2018-08-12T07:10:24.468Z,1012.29
2018-08-12T07:11:24.447Z,1012.27
2018-08-12T07:12:24.436Z,1012.27
2018-08-12T07:13:24.425Z,1012.33
2018-08-12T07:14:24.570Z,1012.24
2018-08-12T07:15:24.401Z,1012.24
2018-08-12T07:16:24.388Z,1012.22
2018-08-12T07:17:24.376Z,1012.24
2018-08-12T07:18:24.364Z,1012.22
2018-08-12T07:19:24.353Z,1012.20
2018-08-12T07:20:24.345Z,1012.19
2018-08-12T07:21:24.335Z,1012.18
2018-08-12T07:22:24.417Z,1012.21
2018-08-12T07:23:24.316Z,1012.18
2018-08-12T07:24:24.294Z,1012.17
2018-08-12T07:25:24.278Z,1012.18
2018-08-12T07:26:24.275Z,1012.18
2018-08-12T07:27:24.258Z,1012.20
2018-08-12T07:28:24.249Z,1012.19
2018-08-12T07:29:24.230Z,1012.21
2018-08-12T07:30:24.220Z,1012.28
2018-08-12T07:31:24.208Z,1012.27
2018-08-12T07:32:24.194Z,1012.25
2018-08-12T07:33:24.188Z,1012.27
2018-08-12T07:34:24.169Z,1012.21
2018-08-12T07:35:24.185Z,1012.17
2018-08-12T07:36:24.154Z,1012.17
2018-08-12T07:37:24.137Z,1012.18
2018-08-12T07:38:24.132Z,1012.16
2018-08-12T07:39:24.114Z,1012.12
2018-08-12T07:40:24.110Z,1012.14
2018-08-12T07:41:24.093Z,1012.14
2018-08-12T07:42:24.077Z,1012.12
2018-08-12T07:43:24.076Z,1012.17
2018-08-12T07:44:24.055Z,1012.09
2018-08-12T07:45:24.073Z,1012.13
2018-08-12T07:46:24.036Z,1012.24
2018-08-12T07:47:24.018Z,1012.27
2018-08-12T07:48:24.011Z,1012.29
2018-08-12T07:49:24.000Z,1012.12
2018-08-12T07:50:23.983Z,1012.14
2018-08-12T07:51:23.974Z,1012.11
2018-08-12T07:52:23.964Z,1012.05
2018-08-12T07:53:23.963Z,1012.03
2018-08-12T07:54:23.993Z,1012.07
2018-08-12T07:55:23.929Z,1012.02
2018-08-12T07:56:23.925Z,1012.05
2018-08-12T07:57:23.907Z,1012.04
2018-08-12T07:58:23.902Z,1012.02
2018-08-12T07:59:23.889Z,1012.03
2018-08-12T08:00:23.878Z,1012.01
2018-08-12T08:01:23.868Z,1012.09
2018-08-12T08:02:23.858Z,1012.03
2018-08-12T08:03:23.848Z,1012.03
2018-08-12T08:04:23.841Z,1012.08
2018-08-12T08:05:23.830Z,1012.05
2018-08-12T08:06:23.954Z,1012.06
2018-08-12T08:07:23.807Z,1012.07
2018-08-12T08:08:23.803Z,1012.08
2018-08-12T08:09:23.792Z,1012.01
2018-08-12T08:10:23.789Z,1012.01
2018-08-12T08:11:23.768Z,1011.95
2018-08-12T08:12:23.810Z,1011.93
2018-08-12T08:13:23.759Z,1011.95
2018-08-12T08:14:23.749Z,1011.93
2018-08-12T08:15:23.882Z,1011.92
2018-08-12T08:16:23.722Z,1011.98
2018-08-12T08:17:23.715Z,1011.96
2018-08-12T08:18:23.703Z,1011.92
2018-08-12T08:19:23.696Z,1011.90
2018-08-12T08:20:23.686Z,1011.89
2018-08-12T08:21:23.674Z,1011.93
2018-08-12T08:22:23.667Z,1011.89
2018-08-12T08:23:23.656Z,1011.91
2018-08-12T08:24:23.648Z,1011.86
2018-08-12T08:25:23.714Z,1011.87
2018-08-12T08:26:23.629Z,1011.84
2018-08-12T08:27:23.620Z,1011.83
2018-08-12T08:28:23.610Z,1011.86
2018-08-12T08:29:23.609Z,1011.81
2018-08-12T08:30:23.589Z,1011.80
2018-08-12T08:31:23.634Z,1011.78
2018-08-12T08:32:23.573Z,1011.77
2018-08-12T08:33:23.561Z,1011.72
2018-08-12T08:34:23.555Z,1011.72
2018-08-12T08:35:23.543Z,1011.72
2018-08-12T08:36:23.534Z,1011.72
2018-08-12T08:37:23.522Z,1011.68
2018-08-12T08:38:23.513Z,1011.72
2018-08-12T08:39:23.505Z,1011.72
2018-08-12T08:40:23.493Z,1011.67
2018-08-12T08:41:23.483Z,1011.68
2018-08-12T08:42:23.474Z,1011.62
2018-08-12T08:43:23.464Z,1011.65
2018-08-12T08:44:23.463Z,1011.59
2018-08-12T08:45:23.445Z,1011.58
2018-08-12T08:46:23.444Z,1011.59
2018-08-12T08:47:23.424Z,1011.64
2018-08-12T08:48:23.414Z,1011.55
2018-08-12T08:49:23.403Z,1011.52
2018-08-12T08:50:23.393Z,1011.53
2018-08-12T08:51:23.395Z,1011.54
2018-08-12T08:52:23.382Z,1011.54
2018-08-12T08:53:23.362Z,1011.52
2018-08-12T08:54:23.354Z,1011.52
2018-08-12T08:55:23.452Z,1011.54
2018-08-12T08:56:23.333Z,1011.52
2018-08-12T08:57:23.322Z,1011.52
2018-08-12T08:58:23.312Z,1011.54
2018-08-12T08:59:23.306Z,1011.57
2018-08-12T09:00:23.295Z,1011.50
2018-08-12T09:01:23.332Z,1011.53
2018-08-12T09:02:23.271Z,1011.55
2018-08-12T09:03:23.261Z,1011.51
2018-08-12T09:04:23.249Z,1011.48
2018-08-12T09:05:23.248Z,1011.49
2018-08-12T09:06:23.228Z,1011.49
2018-08-12T09:07:23.219Z,1011.61
2018-08-12T09:08:23.412Z,1011.63
2018-08-12T09:09:23.209Z,1011.64
2018-08-12T09:10:23.187Z,1011.69
2018-08-12T09:11:23.178Z,1011.77
2018-08-12T09:12:23.184Z,1011.61
2018-08-12T09:13:23.158Z,1011.67
2018-08-12T09:14:23.149Z,1011.73
2018-08-12T09:15:23.140Z,1011.63
2018-08-12T09:16:23.130Z,1011.65
2018-08-12T09:17:23.121Z,1011.62
2018-08-12T09:18:23.170Z,1011.61
2018-08-12T09:19:23.105Z,1011.58
2018-08-12T09:20:23.097Z,1011.52
2018-08-12T09:21:23.097Z,1011.64
2018-08-12T09:22:23.080Z,1011.51
2018-08-12T09:23:23.077Z,1011.65
2018-08-12T09:25:07.248Z,1011.54
2018-08-12T09:26:07.240Z,1011.56
2018-08-12T09:27:07.241Z,1011.46
2018-08-12T09:28:07.227Z,1011.49
2018-08-12T09:29:07.219Z,1011.38
2018-08-12T09:30:07.209Z,1011.44
2018-08-12T09:31:07.203Z,1011.41
2018-08-12T09:32:07.207Z,1011.55
2018-08-12T09:33:07.199Z,1011.48
2018-08-12T09:34:07.185Z,1011.31
2018-08-12T09:35:07.176Z,1011.34
2018-08-12T09:36:07.176Z,1011.62
2018-08-12T09:37:07.169Z,1011.33
2018-08-12T09:38:07.157Z,1011.31
2018-08-12T09:39:07.151Z,1011.34
2018-08-12T09:40:07.147Z,1011.32
2018-08-12T09:41:07.151Z,1011.55
2018-08-12T09:42:07.139Z,1011.59
2018-08-12T09:43:07.170Z,1011.32
2018-08-12T09:44:07.119Z,1011.24
2018-08-12T09:45:07.126Z,1011.25
2018-08-12T09:46:07.104Z,1011.35
2018-08-12T09:47:07.101Z,1011.32
2018-08-12T09:48:07.101Z,1011.53
2018-08-12T09:49:07.088Z,1011.52
2018-08-12T09:50:07.088Z,1011.49
2018-08-12T09:51:07.209Z,1011.49
2018-08-12T09:52:07.076Z,1011.52
2018-08-12T09:53:07.068Z,1011.48
2018-08-12T09:54:07.073Z,1011.42
2018-08-12T09:55:07.062Z,1011.44
2018-08-12T09:56:07.064Z,1011.43
2018-08-12T09:57:07.055Z,1011.45
2018-08-12T09:58:07.052Z,1011.41
2018-08-12T09:59:07.051Z,1011.40
2018-08-12T10:00:07.056Z,1011.37
2018-08-12T10:01:07.043Z,1011.35
2018-08-12T10:02:07.052Z,1011.34
2018-08-12T10:03:07.039Z,1011.39
2018-08-12T10:04:07.157Z,1011.36
2018-08-12T10:05:07.040Z,1011.32
2018-08-12T10:06:07.039Z,1011.31
2018-08-12T10:07:07.041Z,1011.30
2018-08-12T10:08:07.039Z,1011.31
2018-08-12T10:09:07.039Z,1011.28
2018-08-12T10:10:07.036Z,1011.27
2018-08-12T10:11:07.036Z,1011.31
2018-08-12T10:12:07.037Z,1011.26
2018-08-12T10:13:07.043Z,1011.26
2018-08-12T10:14:07.041Z,1011.24
2018-08-12T10:15:07.041Z,1011.22
2018-08-12T10:16:07.040Z,1011.13
2018-08-12T10:17:07.048Z,1011.15
2018-08-12T10:18:07.042Z,1011.13
2018-08-12T10:19:07.043Z,1011.11
2018-08-12T10:21:07.575Z,1011.12
2018-08-12T10:22:07.056Z,1011.10
2018-08-12T10:23:07.052Z,1011.08
2018-08-12T10:24:07.051Z,1011.05
2018-08-12T10:25:07.124Z,1011.02
2018-08-12T10:26:07.058Z,1011.02
2018-08-12T10:27:07.062Z,1011.03
2018-08-12T10:28:07.080Z,1010.93
2018-08-12T10:29:07.080Z,1010.91
2018-08-12T10:30:07.072Z,1010.93
2018-08-12T10:31:07.085Z,1010.91
2018-08-12T10:32:07.077Z,1010.94
2018-08-12T10:33:07.090Z,1010.90
2018-08-12T10:34:07.090Z,1010.85
2018-08-12T10:35:07.093Z,1010.85
2018-08-12T10:36:07.092Z,1010.71
2018-08-12T10:37:07.092Z,1010.77
2018-08-12T10:38:07.123Z,1010.77
2018-08-12T10:39:07.097Z,1010.70
2018-08-12T10:40:07.123Z,1010.75
2018-08-12T10:41:07.116Z,1010.68
2018-08-12T10:42:07.112Z,1010.67
2018-08-12T10:43:07.119Z,1010.64
2018-08-12T10:44:07.119Z,1010.63
2018-08-12T10:45:07.117Z,1010.63
2018-08-12T10:46:07.124Z,1010.63
2018-08-12T10:47:07.144Z,1010.60
2018-08-12T10:48:07.183Z,1010.52
2018-08-12T10:49:07.133Z,1010.54
2018-08-12T10:50:07.136Z,1010.50
2018-08-12T10:51:07.195Z,1010.52
2018-08-12T10:52:07.147Z,1010.49
2018-08-12T10:53:07.155Z,1010.48
2018-08-12T10:54:07.156Z,1010.46
2018-08-12T10:55:07.170Z,1010.43
2018-08-12T10:56:07.162Z,1010.43
2018-08-12T10:57:07.194Z,1010.39
2018-08-12T10:58:07.173Z,1010.39
2018-08-12T10:59:07.178Z,1010.27
2018-08-12T11:00:07.181Z,1010.29
2018-08-12T11:01:07.188Z,1010.26
2018-08-12T11:02:07.212Z,1010.34
2018-08-12T11:03:07.204Z,1010.27
2018-08-12T11:04:07.204Z,1010.25
2018-08-12T11:05:07.205Z,1010.35
2018-08-12T11:06:07.370Z,1010.37
2018-08-12T11:07:07.225Z,1010.37
2018-08-12T11:08:07.223Z,1010.35
2018-08-12T11:09:07.228Z,1010.29
2018-08-12T11:10:07.234Z,1010.30
2018-08-12T11:11:07.238Z,1010.23
2018-08-12T11:12:07.241Z,1010.22
2018-08-12T11:13:07.262Z,1010.25
2018-08-12T11:14:07.256Z,1010.25
2018-08-12T11:15:07.266Z,1010.25
2018-08-12T11:16:07.388Z,1010.20
2018-08-12T11:17:07.264Z,1010.22
2018-08-12T11:18:07.267Z,1010.25
2018-08-12T11:19:07.355Z,1010.24
2018-08-12T11:20:07.280Z,1010.26
2018-08-12T11:21:07.300Z,1010.23
2018-08-12T11:22:07.295Z,1010.28
2018-08-12T11:23:07.292Z,1010.33
2018-08-12T11:24:07.296Z,1010.31
2018-08-12T11:25:07.304Z,1010.38
2018-08-12T11:26:07.303Z,1010.38
2018-08-12T11:27:07.332Z,1010.39
2018-08-12T11:28:07.313Z,1010.48
2018-08-12T11:29:07.350Z,1010.45
2018-08-12T11:30:07.335Z,1010.49
2018-08-12T11:31:07.322Z,1010.56
2018-08-12T11:32:07.333Z,1010.53
2018-08-12T11:33:07.330Z,1010.57
2018-08-12T11:34:07.357Z,1010.56
2018-08-12T11:35:07.343Z,1010.48
2018-08-12T11:36:07.354Z,1010.38
2018-08-12T11:37:07.349Z,1010.49
2018-08-12T11:38:07.349Z,1010.52
2018-08-12T11:39:07.354Z,1010.53
2018-08-12T11:40:07.357Z,1010.52
2018-08-12T11:41:07.443Z,1010.43
2018-08-12T11:42:07.363Z,1010.57
2018-08-12T11:43:07.366Z,1010.61
2018-08-12T11:44:07.368Z,1010.65
2018-08-12T11:45:07.369Z,1010.69
2018-08-12T11:46:07.372Z,1010.73
2018-08-12T11:47:07.523Z,1010.81
2018-08-12T11:48:07.380Z,1010.69
2018-08-12T11:49:07.389Z,1010.69
2018-08-12T11:50:08.596Z,1010.66
2018-08-12T11:51:07.396Z,1010.64
2018-08-12T11:52:07.393Z,1010.33
2018-08-12T11:53:07.391Z,1010.14
2018-08-12T11:54:07.392Z,1010.09
2018-08-12T11:55:07.390Z,1010.01
2018-08-12T11:56:07.383Z,1009.97
2018-08-12T11:57:07.387Z,1009.97
2018-08-12T11:58:07.388Z,1009.92
2018-08-12T11:59:07.382Z,1009.88
2018-08-12T12:00:07.488Z,1009.89
2018-08-12T12:01:07.389Z,1009.89
2018-08-12T12:02:07.405Z,1009.91
2018-08-12T12:03:07.390Z,1009.89
2018-08-12T12:04:07.399Z,1009.88
2018-08-12T12:05:07.383Z,1009.85
2018-08-12T12:06:07.382Z,1009.83
2018-08-12T12:07:07.388Z,1009.80